Time;durP1;ratioP1;P1;durP2;ratioP2;P2;SDS_P1;SDS_P2;PMS_P1;PMS_P2;Temp;Humidity;BMP_temperature;BMP_pressure;BME280_temperature;BME280_humidity;BME280_pressure;Samples;Min_cycle;Max_cycle;Signal;HPM_P1;HPM_P2
2023/10/13 00:00:29;;;;;;;;;;;17.80;92.80;;;;;;4187987;28;19935;-54
2023/10/13 00:03:14;;;;;;;;;;;17.80;92.80;;;;;;4190514;28;19935;-51
2023/10/13 00:06:00;;;;;;;;;;;17.80;92.80;;;;;;4188086;28;19931;-53
2023/10/13 00:08:42;;;;;;;;;;;17.80;93.20;;;;;;4193476;28;19930;-54
2023/10/13 00:11:23;;;;;;;;;;;17.80;92.80;;;;;;4178717;28;20024;-54
2023/10/13 00:14:04;;;;;;;;;;;17.80;92.90;;;;;;4187639;28;19931;-53
2023/10/13 00:17:00;;;;;;;;;;;17.90;92.90;;;;;;4197366;28;19931;-52
2023/10/13 00:19:45;;;;;;;;;;;17.80;92.90;;;;;;4203597;28;20302;-53
2023/10/13 00:22:31;;;;;;;;;;;17.80;93.00;;;;;;4171948;28;19932;-51
2023/10/13 00:25:19;;;;;;;;;;;17.80;93.00;;;;;;4187062;28;20424;-61
2023/10/13 00:28:01;;;;;;;;;;;17.80;93.00;;;;;;4187024;28;19932;-61
2023/10/13 00:30:42;;;;;;;;;;;17.80;93.00;;;;;;4183207;28;20013;-62
2023/10/13 00:33:23;;;;;;;;;;;17.80;93.00;;;;;;4192585;28;19977;-61
2023/10/13 00:36:05;;;;;;;;;;;17.80;93.10;;;;;;4187355;28;19974;-60
2023/10/13 00:38:48;;;;;;;;;;;17.80;93.10;;;;;;4180780;28;19971;-60
2023/10/13 00:41:51;;;;;;;;;;;17.90;93.60;;;;;;4196224;28;19935;-61
2023/10/13 00:44:38;;;;;;;;;;;17.90;93.20;;;;;;4201729;28;19931;-61
2023/10/13 00:47:22;;;;;;;;;;;17.90;93.20;;;;;;4204069;28;20302;-61
2023/10/13 00:50:04;;;;;;;;;;;17.80;93.70;;;;;;4207471;28;20037;-61
2023/10/13 00:52:46;;;;;;;;;;;17.90;93.30;;;;;;4175554;28;20346;-61
2023/10/13 00:55:29;;;;;;;;;;;17.90;93.30;;;;;;4174997;28;19935;-60
2023/10/13 00:58:12;;;;;;;;;;;17.90;93.40;;;;;;4174222;28;19936;-61
2023/10/13 01:01:10;;;;;;;;;;;17.90;93.40;;;;;;4183111;28;19974;-61
2023/10/13 01:03:55;;;;;;;;;;;17.90;93.50;;;;;;4177546;28;19932;-62
2023/10/13 01:06:37;;;;;;;;;;;17.90;93.60;;;;;;4183420;28;19943;-62
2023/10/13 01:09:18;;;;;;;;;;;17.90;94.00;;;;;;4200885;28;20017;-62
2023/10/13 01:12:00;;;;;;;;;;;17.90;93.60;;;;;;4173579;28;19951;-61
2023/10/13 01:14:42;;;;;;;;;;;17.90;93.70;;;;;;4174155;28;19936;-61
2023/10/13 01:17:23;;;;;;;;;;;17.90;93.80;;;;;;4177531;28;19932;-62
2023/10/13 01:20:04;;;;;;;;;;;17.90;93.80;;;;;;4185302;28;19970;-62
2023/10/13 01:22:49;;;;;;;;;;;17.90;93.90;;;;;;4176941;28;19943;-62
2023/10/13 01:25:30;;;;;;;;;;;17.90;93.90;;;;;;4173422;28;19932;-61
2023/10/13 01:28:15;;;;;;;;;;;17.90;94.00;;;;;;4172497;28;20067;-62
2023/10/13 01:30:55;;;;;;;;;;;17.90;94.00;;;;;;4192758;28;20314;-61
2023/10/13 01:33:36;;;;;;;;;;;17.90;94.10;;;;;;4187667;28;19932;-60
2023/10/13 01:36:16;;;;;;;;;;;17.90;94.10;;;;;;4173642;28;19936;-61
2023/10/13 01:39:01;;;;;;;;;;;17.90;94.10;;;;;;4173844;28;19932;-61
2023/10/13 01:41:43;;;;;;;;;;;17.90;94.20;;;;;;4182756;28;19935;-61
2023/10/13 01:44:23;;;;;;;;;;;17.90;94.20;;;;;;4186228;28;20389;-61
2023/10/13 01:47:06;;;;;;;;;;;17.90;94.30;;;;;;4173660;28;19931;-61
2023/10/13 01:49:47;;;;;;;;;;;17.90;94.40;;;;;;4172536;28;19932;-62
2023/10/13 01:52:29;;;;;;;;;;;17.90;94.40;;;;;;4203265;28;19932;-62
2023/10/13 01:55:11;;;;;;;;;;;17.90;94.50;;;;;;4182803;28;19932;-62
2023/10/13 01:57:54;;;;;;;;;;;17.90;94.50;;;;;;4179388;28;19935;-61
2023/10/13 02:00:41;;;;;;;;;;;17.90;94.60;;;;;;4194341;28;19931;-61
2023/10/13 02:03:21;;;;;;;;;;;17.90;94.60;;;;;;4186334;28;19935;-62
2023/10/13 02:06:04;;;;;;;;;;;17.90;94.70;;;;;;4188620;28;19931;-62
2023/10/13 02:08:47;;;;;;;;;;;17.90;94.80;;;;;;4187702;28;19931;-62
2023/10/13 02:11:27;;;;;;;;;;;17.90;94.90;;;;;;4176487;28;19935;-62
2023/10/13 02:14:12;;;;;;;;;;;17.90;95.00;;;;;;4187350;28;19931;-61
2023/10/13 02:16:55;;;;;;;;;;;17.90;95.00;;;;;;4203849;28;19938;-62
2023/10/13 02:19:39;;;;;;;;;;;17.90;95.10;;;;;;4188760;28;19932;-62
2023/10/13 02:22:31;;;;;;;;;;;17.90;95.10;;;;;;4171448;28;19931;-62
2023/10/13 02:25:16;;;;;;;;;;;17.90;95.20;;;;;;4171164;28;19940;-59
2023/10/13 02:28:00;;;;;;;;;;;17.90;95.20;;;;;;4174984;28;20393;-62
2023/10/13 02:30:44;;;;;;;;;;;17.90;95.30;;;;;;4186451;28;19931;-62
2023/10/13 02:33:30;;;;;;;;;;;18.00;95.40;;;;;;4170711;28;20009;-61
2023/10/13 02:36:12;;;;;;;;;;;18.00;95.50;;;;;;4175139;28;19959;-62
2023/10/13 02:38:57;;;;;;;;;;;18.00;95.60;;;;;;4181039;28;19935;-61
2023/10/13 02:41:38;;;;;;;;;;;17.90;95.60;;;;;;4197572;28;19935;-62
2023/10/13 02:44:27;;;;;;;;;;;18.00;96.20;;;;;;4188898;28;19935;-62
2023/10/13 02:47:14;;;;;;;;;;;18.00;95.80;;;;;;4188452;28;20283;-61
2023/10/13 02:49:54;;;;;;;;;;;18.00;95.90;;;;;;4187353;28;19932;-60
2023/10/13 02:52:38;;;;;;;;;;;18.00;95.90;;;;;;4195427;28;19931;-61
2023/10/13 02:55:25;;;;;;;;;;;18.00;96.00;;;;;;4187015;28;19997;-61
2023/10/13 02:58:05;;;;;;;;;;;18.00;96.00;;;;;;4187006;28;19931;-62
2023/10/13 03:00:47;;;;;;;;;;;18.00;96.50;;;;;;4185885;28;19932;-61
2023/10/13 03:03:29;;;;;;;;;;;18.00;96.20;;;;;;4184576;28;20017;-61
2023/10/13 03:06:11;;;;;;;;;;;18.00;96.20;;;;;;4174564;28;19936;-62
2023/10/13 03:08:52;;;;;;;;;;;18.00;96.20;;;;;;4175991;28;19962;-61
2023/10/13 03:11:33;;;;;;;;;;;18.00;96.20;;;;;;4180575;28;20004;-62
2023/10/13 03:14:23;;;;;;;;;;;18.00;96.20;;;;;;4178518;28;19934;-62
2023/10/13 03:17:06;;;;;;;;;;;18.00;96.30;;;;;;4171401;28;19931;-62
2023/10/13 03:19:51;;;;;;;;;;;18.00;96.70;;;;;;4174527;28;20311;-61
2023/10/13 03:22:31;;;;;;;;;;;18.00;96.40;;;;;;4190608;28;19951;-61
2023/10/13 03:25:17;;;;;;;;;;;18.00;96.50;;;;;;4187732;28;20393;-62
2023/10/13 03:28:01;;;;;;;;;;;18.00;96.50;;;;;;4204211;28;19947;-62
2023/10/13 03:30:43;;;;;;;;;;;18.00;96.50;;;;;;4180401;28;20370;-61
2023/10/13 03:33:26;;;;;;;;;;;18.10;96.50;;;;;;4187741;28;19951;-61
2023/10/13 03:36:09;;;;;;;;;;;18.10;96.60;;;;;;4174423;28;20460;-64
2023/10/13 03:38:54;;;;;;;;;;;18.10;96.70;;;;;;4187654;28;19931;-62
2023/10/13 03:41:38;;;;;;;;;;;18.00;96.70;;;;;;4181064;28;19975;-62
2023/10/13 03:44:18;;;;;;;;;;;18.10;96.70;;;;;;4170881;28;20407;-61
2023/10/13 03:47:17;;;;;;;;;;;18.10;96.80;;;;;;4170668;28;19936;-61
2023/10/13 03:50:15;;;;;;;;;;;18.10;97.20;;;;;;4194927;28;20069;-62
2023/10/13 03:52:58;;;;;;;;;;;18.00;96.90;;;;;;4203581;28;20397;-62
2023/10/13 03:55:39;;;;;;;;;;;18.10;97.00;;;;;;4202702;28;20057;-60
2023/10/13 03:58:22;;;;;;;;;;;18.10;97.00;;;;;;4191518;28;20062;-63
2023/10/13 04:01:04;;;;;;;;;;;18.10;97.00;;;;;;4201743;28;20018;-60
2023/10/13 04:04:03;;;;;;;;;;;18.10;97.30;;;;;;4173374;28;20060;-61
2023/10/13 04:06:59;;;;;;;;;;;18.10;96.90;;;;;;4170483;28;19932;-61
2023/10/13 04:19:03;;;;;;;;;;;18.10;97.10;;;;;;4202098;28;19931;-60
2023/10/13 04:21:57;;;;;;;;;;;18.10;97.10;;;;;;4170171;28;19982;-61
2023/10/13 04:24:59;;;;;;;;;;;18.10;97.10;;;;;;4174084;28;19978;-61
2023/10/13 04:27:53;;;;;;;;;;;18.10;97.20;;;;;;4190132;28;19939;-61
2023/10/13 04:30:51;;;;;;;;;;;18.10;97.20;;;;;;4200190;28;19935;-60
2023/10/13 04:33:43;;;;;;;;;;;18.10;97.20;;;;;;4204058;28;20533;-55
2023/10/13 04:36:45;;;;;;;;;;;18.10;97.20;;;;;;4192018;28;20062;-60
2023/10/13 04:39:35;;;;;;;;;;;18.10;97.20;;;;;;4180199;28;19935;-60
2023/10/13 04:42:38;;;;;;;;;;;18.10;97.30;;;;;;4206325;28;19962;-61
2023/10/13 04:48:28;;;;;;;;;;;18.10;97.30;;;;;;4189829;28;20014;-49
2023/10/13 04:54:24;;;;;;;;;;;18.10;97.40;;;;;;4173302;28;19935;-54
2023/10/13 05:03:40;;;;;;;;;;;18.10;97.50;;;;;;4203573;28;19938;-53
2023/10/13 05:45:39;;;;;;;;;;;18.20;97.90;;;;;;4189222;28;19969;-54
2023/10/13 05:48:34;;;;;;;;;;;18.20;97.80;;;;;;4186552;28;20017;-52
2023/10/13 05:51:43;;;;;;;;;;;18.20;98.10;;;;;;4177480;28;20393;-50
2023/10/13 06:30:14;;;;;;;;;;;18.20;97.40;;;;;;4171946;28;19932;-62
2023/10/13 06:32:54;;;;;;;;;;;18.20;97.30;;;;;;4188370;28;20040;-62
2023/10/13 06:35:38;;;;;;;;;;;18.20;97.30;;;;;;4192000;28;20035;-61
2023/10/13 06:38:21;;;;;;;;;;;18.20;97.40;;;;;;4195541;28;19943;-62
2023/10/13 06:41:05;;;;;;;;;;;18.20;97.40;;;;;;4195203;28;20417;-62
2023/10/13 06:43:46;;;;;;;;;;;18.20;97.40;;;;;;4195710;28;20035;-62
2023/10/13 06:46:28;;;;;;;;;;;18.20;97.40;;;;;;4201169;28;19932;-62
2023/10/13 06:49:10;;;;;;;;;;;18.20;97.50;;;;;;4201210;28;19935;-60
2023/10/13 06:51:51;;;;;;;;;;;18.20;97.50;;;;;;4196521;28;19935;-53
2023/10/13 06:54:34;;;;;;;;;;;18.20;97.60;;;;;;4200545;28;19967;-50
2023/10/13 06:57:15;;;;;;;;;;;18.10;98.00;;;;;;4201869;28;19931;-50
2023/10/13 06:59:56;;;;;;;;;;;18.20;97.80;;;;;;4204188;28;19949;-51
2023/10/13 07:02:36;;;;;;;;;;;18.20;97.90;;;;;;4185376;28;19935;-54
2023/10/13 07:05:17;;;;;;;;;;;18.10;97.80;;;;;;4183874;28;19931;-51
2023/10/13 07:07:59;;;;;;;;;;;18.20;97.90;;;;;;4183230;28;20062;-54
2023/10/13 07:11:01;;;;;;;;;;;18.10;97.90;;;;;;4189690;28;19935;-51
2023/10/13 07:13:49;;;;;;;;;;;18.10;97.90;;;;;;4202772;28;19931;-54
2023/10/13 07:16:35;;;;;;;;;;;18.10;98.10;;;;;;4186658;28;19987;-55
2023/10/13 07:19:17;;;;;;;;;;;18.10;98.20;;;;;;4197045;27;19931;-53
2023/10/13 07:22:18;;;;;;;;;;;18.10;98.70;;;;;;4185657;28;20401;-54
2023/10/13 07:25:04;;;;;;;;;;;18.10;98.40;;;;;;4186054;28;20061;-53
2023/10/13 07:27:49;;;;;;;;;;;18.10;98.50;;;;;;4187859;28;20319;-50
2023/10/13 07:30:31;;;;;;;;;;;18.10;98.50;;;;;;4202762;28;20020;-53
2023/10/13 07:33:13;;;;;;;;;;;18.10;98.60;;;;;;4203538;28;20397;-51
2023/10/13 07:36:01;;;;;;;;;;;18.10;98.50;;;;;;4203278;28;19930;-51
2023/10/13 07:38:43;;;;;;;;;;;18.10;98.50;;;;;;4191134;28;19936;-52
2023/10/13 07:41:30;;;;;;;;;;;18.10;98.40;;;;;;4183580;28;19935;-52
2023/10/13 07:44:13;;;;;;;;;;;18.10;98.70;;;;;;4181083;28;19950;-52
2023/10/13 07:46:59;;;;;;;;;;;18.10;98.40;;;;;;4184143;28;19935;-55
2023/10/13 07:49:40;;;;;;;;;;;18.10;98.50;;;;;;4200693;28;19935;-54
2023/10/13 07:52:58;;;;;;;;;;;18.10;98.50;;;;;;4190674;28;20082;-53
2023/10/13 07:55:39;;;;;;;;;;;18.10;98.60;;;;;;4186345;28;19940;-52
2023/10/13 07:58:20;;;;;;;;;;;18.10;98.50;;;;;;4170099;28;20682;-55
2023/10/13 08:01:08;;;;;;;;;;;18.10;98.40;;;;;;4184262;28;19932;-51
2023/10/13 08:04:04;;;;;;;;;;;18.10;98.30;;;;;;4187341;28;19978;-58
2023/10/13 08:06:45;;;;;;;;;;;18.10;98.30;;;;;;4187098;28;19935;-52
2023/10/13 08:09:40;;;;;;;;;;;18.20;98.20;;;;;;4189945;28;20707;-53
2023/10/13 08:12:22;;;;;;;;;;;18.20;98.20;;;;;;4186295;28;20006;-54
2023/10/13 08:15:20;;;;;;;;;;;18.10;98.50;;;;;;4175892;28;19977;-55
2023/10/13 08:18:17;;;;;;;;;;;18.10;98.20;;;;;;4185880;28;19935;-52
2023/10/13 08:21:03;;;;;;;;;;;18.10;98.20;;;;;;4188901;28;20561;-54
2023/10/13 08:24:06;;;;;;;;;;;18.10;98.20;;;;;;4190324;28;19935;-54
2023/10/13 08:27:15;;;;;;;;;;;18.20;98.20;;;;;;4180028;28;19931;-50
2023/10/13 08:32:58;;;;;;;;;;;18.20;98.50;;;;;;4186706;28;20137;-49
2023/10/13 08:35:54;;;;;;;;;;;18.20;98.50;;;;;;4186674;28;19977;-49
2023/10/13 08:38:50;;;;;;;;;;;18.30;98.50;;;;;;4191646;28;20045;-58
2023/10/13 08:41:32;;;;;;;;;;;18.40;98.60;;;;;;4189788;28;19935;-60
2023/10/13 08:44:31;;;;;;;;;;;18.40;98.60;;;;;;4186290;28;20393;-59
2023/10/13 08:47:35;;;;;;;;;;;18.40;98.70;;;;;;4179555;28;19981;-59
2023/10/13 08:50:47;;;;;;;;;;;18.40;98.70;;;;;;4173279;28;19939;-59
2023/10/13 08:53:31;;;;;;;;;;;18.50;98.70;;;;;;4168229;28;19978;-60
2023/10/13 08:56:17;;;;;;;;;;;18.50;98.60;;;;;;4170423;28;19935;-48
2023/10/13 08:59:05;;;;;;;;;;;18.60;98.60;;;;;;4180121;28;20278;-48
2023/10/13 09:01:48;;;;;;;;;;;18.60;98.50;;;;;;4170758;28;20621;-50
2023/10/13 09:04:33;;;;;;;;;;;18.60;98.50;;;;;;4171722;28;19932;-50
2023/10/13 09:07:21;;;;;;;;;;;18.60;98.50;;;;;;4170618;28;20354;-49
2023/10/13 09:10:32;;;;;;;;;;;18.50;98.50;;;;;;4172439;28;20303;-53
2023/10/13 09:13:20;;;;;;;;;;;18.50;98.40;;;;;;4173284;28;19931;-49
2023/10/13 09:16:15;;;;;;;;;;;18.60;98.50;;;;;;4188126;28;19931;-51
2023/10/13 09:19:04;;;;;;;;;;;18.50;98.50;;;;;;4172551;28;19935;-49
2023/10/13 09:21:48;;;;;;;;;;;18.50;98.60;;;;;;4198909;28;19935;-50
2023/10/13 09:24:31;;;;;;;;;;;18.50;98.60;;;;;;4203231;28;19993;-49
2023/10/13 09:27:13;;;;;;;;;;;18.60;99.00;;;;;;4199587;28;19931;-52
2023/10/13 09:30:01;;;;;;;;;;;18.60;98.70;;;;;;4202127;28;19930;-49
2023/10/13 09:32:48;;;;;;;;;;;18.60;98.80;;;;;;4205662;28;19934;-49
2023/10/13 09:35:31;;;;;;;;;;;18.60;98.80;;;;;;4186186;28;20017;-49
2023/10/13 09:38:15;;;;;;;;;;;18.60;99.00;;;;;;4174430;28;20267;-52
2023/10/13 09:40:57;;;;;;;;;;;18.60;99.10;;;;;;4178862;28;19932;-51
2023/10/13 09:43:43;;;;;;;;;;;18.60;99.20;;;;;;4175502;28;19939;-53
2023/10/13 09:46:26;;;;;;;;;;;18.60;99.20;;;;;;4185632;28;19932;-49
2023/10/13 09:49:22;;;;;;;;;;;18.60;99.40;;;;;;4200647;28;20317;-52
2023/10/13 09:52:04;;;;;;;;;;;18.60;99.50;;;;;;4188047;28;19935;-59
2023/10/13 09:54:48;;;;;;;;;;;18.60;99.50;;;;;;4202993;28;19977;-59
2023/10/13 09:57:34;;;;;;;;;;;18.60;99.50;;;;;;4172386;28;19932;-49
2023/10/13 10:00:44;;;;;;;;;;;18.60;99.40;;;;;;4189445;28;20432;-50
2023/10/13 10:03:39;;;;;;;;;;;18.70;99.50;;;;;;4171799;28;19990;-50
2023/10/13 10:06:28;;;;;;;;;;;18.70;99.50;;;;;;4188073;28;19935;-52
2023/10/13 10:09:11;;;;;;;;;;;18.70;99.40;;;;;;4171494;28;19957;-51
2023/10/13 10:12:04;;;;;;;;;;;18.70;99.50;;;;;;4174814;28;19936;-49
2023/10/13 10:15:13;;;;;;;;;;;18.80;99.60;;;;;;4171518;28;19976;-51
2023/10/13 10:17:55;;;;;;;;;;;18.80;99.60;;;;;;4182405;28;19947;-50
2023/10/13 10:20:44;;;;;;;;;;;18.80;99.80;;;;;;4183842;28;19935;-58
2023/10/13 10:23:27;;;;;;;;;;;18.80;99.80;;;;;;4177663;28;19935;-60
2023/10/13 10:26:11;;;;;;;;;;;18.80;99.90;;;;;;4178360;28;19931;-60
2023/10/13 10:28:54;;;;;;;;;;;18.80;99.90;;;;;;4171939;28;19940;-61
2023/10/13 10:31:41;;;;;;;;;;;18.90;99.90;;;;;;4169907;28;20032;-61
2023/10/13 10:34:32;;;;;;;;;;;18.90;99.90;;;;;;4180594;28;19935;-59
2023/10/13 10:37:14;;;;;;;;;;;18.90;99.90;;;;;;4202495;28;19939;-52
2023/10/13 10:39:57;;;;;;;;;;;18.90;99.90;;;;;;4203098;28;19931;-59
2023/10/13 10:42:40;;;;;;;;;;;18.90;99.90;;;;;;4200663;28;19935;-59
2023/10/13 10:45:32;;;;;;;;;;;18.90;99.90;;;;;;4202091;28;19934;-60
2023/10/13 10:48:18;;;;;;;;;;;18.90;99.80;;;;;;4202481;28;19939;-58
2023/10/13 10:51:06;;;;;;;;;;;18.90;99.80;;;;;;4191435;28;19946;-59
2023/10/13 10:53:49;;;;;;;;;;;19.00;99.90;;;;;;4180223;28;20378;-59
2023/10/13 10:56:37;;;;;;;;;;;19.00;99.70;;;;;;4181148;28;19973;-59
2023/10/13 10:59:18;;;;;;;;;;;19.00;99.60;;;;;;4186582;28;19991;-59
2023/10/13 11:01:59;;;;;;;;;;;19.00;99.40;;;;;;4184418;28;20062;-59
2023/10/13 11:04:50;;;;;;;;;;;19.00;99.40;;;;;;4177709;28;19931;-59
2023/10/13 11:07:34;;;;;;;;;;;19.00;99.30;;;;;;4193020;28;19939;-58
2023/10/13 11:10:20;;;;;;;;;;;19.00;99.20;;;;;;4175634;28;19935;-51
2023/10/13 11:13:13;;;;;;;;;;;19.00;99.10;;;;;;4171242;28;19932;-49
2023/10/13 11:15:57;;;;;;;;;;;19.10;99.20;;;;;;4169923;28;20043;-50
2023/10/13 11:18:40;;;;;;;;;;;19.10;99.20;;;;;;4202588;28;19962;-51
2023/10/13 11:21:22;;;;;;;;;;;19.10;99.10;;;;;;4170931;28;20256;-51
2023/10/13 11:24:08;;;;;;;;;;;19.10;99.10;;;;;;4174847;28;20620;-50
2023/10/13 11:26:50;;;;;;;;;;;19.10;99.10;;;;;;4197387;28;19931;-50
2023/10/13 11:29:33;;;;;;;;;;;19.20;99.10;;;;;;4188816;28;20031;-55
2023/10/13 11:32:19;;;;;;;;;;;19.20;99.10;;;;;;4195601;28;19931;-47
2023/10/13 11:35:01;;;;;;;;;;;19.30;99.10;;;;;;4190707;28;19950;-52
2023/10/13 11:37:43;;;;;;;;;;;19.30;99.00;;;;;;4170868;28;20315;-50
2023/10/13 11:43:23;;;;;;;;;;;19.40;98.80;;;;;;4172815;28;19966;-63
2023/10/13 11:46:15;;;;;;;;;;;19.40;98.70;;;;;;4191108;28;19986;-63
2023/10/13 11:49:05;;;;;;;;;;;19.50;98.60;;;;;;4200443;28;20266;-60
2023/10/13 11:51:46;;;;;;;;;;;19.50;98.50;;;;;;4203767;28;20596;-61
2023/10/13 11:54:27;;;;;;;;;;;19.60;98.40;;;;;;4203959;28;19931;-61
2023/10/13 11:57:09;;;;;;;;;;;19.60;98.30;;;;;;4172284;28;19974;-57
2023/10/13 12:00:16;;;;;;;;;;;19.70;98.30;;;;;;4170747;28;20075;-61
2023/10/13 12:06:17;;;;;;;;;;;19.80;98.10;;;;;;4170100;28;20695;-58
2023/10/13 12:09:11;;;;;;;;;;;19.80;98.10;;;;;;4169276;28;19974;-62
2023/10/13 12:11:54;;;;;;;;;;;19.90;97.90;;;;;;4169310;28;19935;-59
2023/10/13 12:14:52;;;;;;;;;;;19.90;97.70;;;;;;4189373;28;20290;-57
2023/10/13 12:17:34;;;;;;;;;;;20.00;97.60;;;;;;4186455;28;19947;-61
2023/10/13 12:20:25;;;;;;;;;;;20.00;97.50;;;;;;4181484;28;19981;-58
2023/10/13 12:23:15;;;;;;;;;;;20.10;97.80;;;;;;4174303;28;19967;-59
2023/10/13 12:25:59;;;;;;;;;;;20.10;97.30;;;;;;4174782;28;19935;-61
2023/10/13 12:28:50;;;;;;;;;;;20.10;97.10;;;;;;4187424;28;20061;-51
2023/10/13 12:31:33;;;;;;;;;;;20.20;97.00;;;;;;4186887;28;19943;-50
2023/10/13 12:34:19;;;;;;;;;;;20.20;96.90;;;;;;4195822;28;19950;-48
2023/10/13 12:37:19;;;;;;;;;;;20.20;96.80;;;;;;4203709;28;19935;-48
2023/10/13 12:49:16;;;;;;;;;;;20.30;96.40;;;;;;4174768;28;19932;-58
2023/10/13 12:51:56;;;;;;;;;;;20.20;96.30;;;;;;4182030;28;20400;-58
2023/10/13 12:54:38;;;;;;;;;;;20.20;96.30;;;;;;4188999;28;19977;-48
2023/10/13 12:57:22;;;;;;;;;;;20.20;96.30;;;;;;4173546;28;20636;-51
2023/10/13 13:00:16;;;;;;;;;;;20.10;96.30;;;;;;4197917;28;19931;-58
2023/10/13 13:02:57;;;;;;;;;;;20.10;96.30;;;;;;4206587;28;19931;-58
2023/10/13 13:05:44;;;;;;;;;;;20.10;96.40;;;;;;4206465;28;20366;-58
2023/10/13 13:08:25;;;;;;;;;;;20.00;96.40;;;;;;4189736;28;19935;-58
2023/10/13 13:11:06;;;;;;;;;;;20.00;96.50;;;;;;4188710;28;19963;-58
2023/10/13 13:13:47;;;;;;;;;;;20.00;96.50;;;;;;4183546;28;19932;-58
2023/10/13 13:16:30;;;;;;;;;;;20.00;96.60;;;;;;4189823;28;19967;-58
2023/10/13 13:19:14;;;;;;;;;;;19.90;96.60;;;;;;4173508;28;19931;-48
2023/10/13 13:21:56;;;;;;;;;;;19.90;96.60;;;;;;4194154;28;19931;-50
2023/10/13 13:24:43;;;;;;;;;;;19.90;96.60;;;;;;4204061;28;20398;-48
2023/10/13 13:27:24;;;;;;;;;;;19.90;96.70;;;;;;4199667;28;19950;-48
2023/10/13 13:30:12;;;;;;;;;;;19.80;96.70;;;;;;4206037;28;19931;-47
2023/10/13 13:32:53;;;;;;;;;;;19.80;96.70;;;;;;4205541;28;19935;-48
2023/10/13 13:35:34;;;;;;;;;;;19.90;96.70;;;;;;4178762;28;19931;-47
2023/10/13 13:38:22;;;;;;;;;;;19.80;96.70;;;;;;4174013;28;19932;-50
2023/10/13 13:41:09;;;;;;;;;;;19.80;96.70;;;;;;4186849;28;19999;-47
2023/10/13 13:43:56;;;;;;;;;;;19.80;96.80;;;;;;4176234;28;19935;-49
2023/10/13 13:46:41;;;;;;;;;;;19.80;96.80;;;;;;4187291;28;19936;-58
2023/10/13 13:49:29;;;;;;;;;;;19.70;96.90;;;;;;4201077;28;19982;-58
2023/10/13 13:52:17;;;;;;;;;;;19.70;96.90;;;;;;4199037;28;19935;-58
2023/10/13 13:55:02;;;;;;;;;;;19.70;96.90;;;;;;4193308;28;19931;-58
2023/10/13 13:57:44;;;;;;;;;;;19.70;97.00;;;;;;4205545;28;19931;-58
2023/10/13 14:00:37;;;;;;;;;;;19.70;97.00;;;;;;4205008;28;20434;-48
2023/10/13 14:03:30;;;;;;;;;;;19.70;97.10;;;;;;4161652;28;19936;-48
2023/10/13 14:06:16;;;;;;;;;;;19.60;97.10;;;;;;4172199;28;19935;-48
2023/10/13 14:08:59;;;;;;;;;;;19.70;97.20;;;;;;4167212;28;19948;-51
2023/10/13 14:14:47;;;;;;;;;;;19.60;97.30;;;;;;4154900;28;19978;-47
2023/10/13 14:17:29;;;;;;;;;;;19.60;97.30;;;;;;4154196;28;20022;-50
2023/10/13 14:20:18;;;;;;;;;;;19.60;97.30;;;;;;4152383;28;19932;-50
2023/10/13 14:22:58;;;;;;;;;;;19.60;97.40;;;;;;4155515;28;19936;-50
2023/10/13 14:25:44;;;;;;;;;;;19.60;97.40;;;;;;4156402;28;19936;-49
2023/10/13 14:28:34;;;;;;;;;;;19.60;97.50;;;;;;4171110;28;20398;-53
2023/10/13 14:31:15;;;;;;;;;;;19.50;97.60;;;;;;4160503;28;20296;-48
2023/10/13 14:33:56;;;;;;;;;;;19.60;97.60;;;;;;4148938;28;19936;-48
2023/10/13 14:36:37;;;;;;;;;;;19.60;97.70;;;;;;4152880;28;19935;-47
2023/10/13 14:39:20;;;;;;;;;;;19.50;97.70;;;;;;4153787;28;20018;-48
2023/10/13 14:42:02;;;;;;;;;;;19.50;97.70;;;;;;4155656;28;19931;-48
2023/10/13 14:44:44;;;;;;;;;;;19.50;97.70;;;;;;4164626;28;19932;-48
2023/10/13 14:47:25;;;;;;;;;;;19.50;97.70;;;;;;4154275;28;20398;-47
2023/10/13 14:50:14;;;;;;;;;;;19.60;97.70;;;;;;4169237;28;19940;-49
2023/10/13 14:52:55;;;;;;;;;;;19.50;97.60;;;;;;4138059;28;20061;-52
2023/10/13 14:55:39;;;;;;;;;;;19.50;97.60;;;;;;4157870;28;19935;-48
2023/10/13 14:58:22;;;;;;;;;;;19.50;97.60;;;;;;4169705;28;20374;-49
2023/10/13 15:01:10;;;;;;;;;;;19.50;97.70;;;;;;4167565;28;19932;-49
2023/10/13 15:03:54;;;;;;;;;;;19.50;97.70;;;;;;4195032;28;19988;-49
2023/10/13 15:06:35;;;;;;;;;;;19.50;97.60;;;;;;4186082;28;19935;-50
2023/10/13 15:09:23;;;;;;;;;;;19.50;97.60;;;;;;4190006;28;19932;-50
2023/10/13 15:12:05;;;;;;;;;;;19.50;98.00;;;;;;4186411;28;19931;-49
2023/10/13 15:14:46;;;;;;;;;;;19.50;97.60;;;;;;4204609;28;19998;-49
2023/10/13 15:17:29;;;;;;;;;;;19.50;97.60;;;;;;4172710;28;19993;-49
2023/10/13 15:20:11;;;;;;;;;;;19.50;97.60;;;;;;4191869;28;19931;-50
2023/10/13 15:22:59;;;;;;;;;;;19.50;97.60;;;;;;4202721;28;20365;-50
2023/10/13 15:25:49;;;;;;;;;;;19.50;98.00;;;;;;4203504;28;20408;-49
2023/10/13 15:28:30;;;;;;;;;;;19.40;97.60;;;;;;4203719;28;19935;-49
2023/10/13 15:31:22;;;;;;;;;;;19.50;97.60;;;;;;4203776;28;20070;-49
2023/10/13 15:34:06;;;;;;;;;;;19.50;97.70;;;;;;4203427;28;19939;-53
2023/10/13 15:36:47;;;;;;;;;;;19.40;97.70;;;;;;4203618;28;19935;-50
2023/10/13 15:39:31;;;;;;;;;;;19.40;97.70;;;;;;4203621;28;20072;-50
2023/10/13 15:42:14;;;;;;;;;;;19.40;97.80;;;;;;4203456;28;19939;-51
2023/10/13 15:44:54;;;;;;;;;;;19.40;97.80;;;;;;4203504;28;19942;-51
2023/10/13 15:47:35;;;;;;;;;;;19.40;97.90;;;;;;4203553;28;19934;-51
2023/10/13 15:50:21;;;;;;;;;;;19.40;97.90;;;;;;4203520;28;20270;-54
2023/10/13 15:53:03;;;;;;;;;;;19.40;98.00;;;;;;4202822;28;20025;-51
2023/10/13 15:55:45;;;;;;;;;;;19.40;98.40;;;;;;4201078;28;19943;-50
2023/10/13 15:58:27;;;;;;;;;;;19.40;98.00;;;;;;4203581;28;20381;-51
2023/10/13 16:01:08;;;;;;;;;;;19.40;98.00;;;;;;4202912;28;19947;-51
2023/10/13 16:03:50;;;;;;;;;;;19.40;98.00;;;;;;4202954;28;20393;-51
2023/10/13 16:06:32;;;;;;;;;;;19.40;98.10;;;;;;4202122;28;20606;-51
2023/10/13 16:09:15;;;;;;;;;;;19.40;98.10;;;;;;4202216;28;19977;-52
2023/10/13 16:11:55;;;;;;;;;;;19.40;98.20;;;;;;4203324;28;19931;-51
2023/10/13 16:14:36;;;;;;;;;;;19.40;98.20;;;;;;4212393;28;20370;-51
2023/10/13 16:17:21;;;;;;;;;;;19.40;98.20;;;;;;4211492;28;19966;-50
2023/10/13 16:20:04;;;;;;;;;;;19.40;98.30;;;;;;4206394;28;20267;-50
2023/10/13 16:22:47;;;;;;;;;;;19.40;98.40;;;;;;4200809;28;19989;-50
2023/10/13 16:25:27;;;;;;;;;;;19.30;98.30;;;;;;4175154;28;19936;-51
2023/10/13 16:28:11;;;;;;;;;;;19.30;98.40;;;;;;4189600;28;19973;-51
2023/10/13 16:30:54;;;;;;;;;;;19.30;98.40;;;;;;4188643;28;20089;-51
2023/10/13 16:33:35;;;;;;;;;;;19.30;98.40;;;;;;4200842;28;19986;-51
2023/10/13 16:36:16;;;;;;;;;;;19.30;98.40;;;;;;4204486;28;20053;-50
2023/10/13 16:38:58;;;;;;;;;;;19.30;98.50;;;;;;4206465;28;19932;-50
2023/10/13 16:41:41;;;;;;;;;;;19.30;98.40;;;;;;4206638;28;19951;-50
2023/10/13 16:44:25;;;;;;;;;;;19.30;98.40;;;;;;4176888;28;19977;-49
2023/10/13 16:47:07;;;;;;;;;;;19.30;98.50;;;;;;4174985;28;19948;-49
2023/10/13 16:49:48;;;;;;;;;;;19.30;98.40;;;;;;4181029;28;20054;-50
2023/10/13 16:52:29;;;;;;;;;;;19.30;98.40;;;;;;4189935;28;20389;-50
2023/10/13 16:55:11;;;;;;;;;;;19.30;98.40;;;;;;4191904;28;19967;-49
2023/10/13 16:57:52;;;;;;;;;;;19.30;98.50;;;;;;4185640;28;19975;-49
2023/10/13 17:00:33;;;;;;;;;;;19.30;98.60;;;;;;4190154;28;20318;-48
2023/10/13 17:03:15;;;;;;;;;;;19.30;98.60;;;;;;4190755;28;19951;-47
2023/10/13 17:05:56;;;;;;;;;;;19.30;98.60;;;;;;4204773;28;19950;-49
2023/10/13 17:08:37;;;;;;;;;;;19.40;99.00;;;;;;4205764;28;19935;-49
2023/10/13 17:11:20;;;;;;;;;;;19.40;98.60;;;;;;4203076;28;19931;-49
2023/10/13 17:14:05;;;;;;;;;;;19.50;98.60;;;;;;4203841;28;19930;-50
2023/10/13 17:16:47;;;;;;;;;;;19.50;98.60;;;;;;4197664;28;19979;-54
2023/10/13 17:19:27;;;;;;;;;;;19.50;98.50;;;;;;4182944;28;20383;-52
2023/10/13 17:22:08;;;;;;;;;;;19.50;98.90;;;;;;4174835;28;19935;-50
2023/10/13 17:24:50;;;;;;;;;;;19.50;98.50;;;;;;4183017;28;19977;-47
2023/10/13 17:27:33;;;;;;;;;;;19.60;98.40;;;;;;4191635;28;20585;-49
2023/10/13 17:30:15;;;;;;;;;;;19.60;98.40;;;;;;4200847;28;19935;-55
2023/10/13 17:32:56;;;;;;;;;;;19.60;98.40;;;;;;4205713;28;19935;-53
2023/10/13 17:35:37;;;;;;;;;;;19.60;98.30;;;;;;4205131;28;19931;-49
2023/10/13 17:38:18;;;;;;;;;;;19.60;98.30;;;;;;4205082;28;20030;-53
2023/10/13 17:40:59;;;;;;;;;;;19.60;98.20;;;;;;4176661;28;19936;-48
2023/10/13 17:43:41;;;;;;;;;;;19.70;98.30;;;;;;4183957;28;20022;-52
2023/10/13 17:46:22;;;;;;;;;;;19.70;98.30;;;;;;4176973;28;19931;-51
2023/10/13 17:49:03;;;;;;;;;;;19.70;98.30;;;;;;4176847;28;20031;-52
2023/10/13 17:51:44;;;;;;;;;;;19.70;98.20;;;;;;4185022;28;20058;-49
2023/10/13 17:54:25;;;;;;;;;;;19.80;98.20;;;;;;4188158;28;20047;-48
2023/10/13 17:57:07;;;;;;;;;;;19.70;98.10;;;;;;4188679;28;20416;-47
2023/10/13 17:59:49;;;;;;;;;;;19.70;98.10;;;;;;4188856;28;19931;-52